Terminal Aerodrome Forecast
Issued by NWS Sterling, VA

Current Version | Previous Version | Text Only | Print | Product List | Glossary Off
Versions: 1 2 3 4 5 6 7 8 9 10 11 12 13 14 15 16 17 18 19 20 21 22 23

000
FTUS41 KLWX 192044 AAA
TAFIAD
TAF AMD
KIAD 192044Z 1921/2024 VRB03KT 6SM BR OVC003
     FM200300 19006KT 5SM BR BKN003 OVC008
     FM200800 20005KT 3SM BR BKN003 OVC008
     FM201200 21006KT 5SM BR BKN008
     FM201500 23009KT P6SM BKN025
     FM201700 30010G18KT P6SM BKN040=

USA.gov is the U.S. government's official web portal to all federal, state and local government web resources and services.